sensor_id;sensor_type;location;lat;lon;timestamp;P1;P2;P0
79117;PMS7003;68523;51.336;-0.846;2023-11-18T00:00:00;3;3;
79117;PMS7003;68523;51.336;-0.846;2023-11-18T00:03:00;3;3;
79117;PMS7003;68523;51.336;-0.846;2023-11-18T00:06:00;3;3;
79117;PMS7003;68523;51.336;-0.846;2023-11-18T00:09:00;4;1;
79117;PMS7003;68523;51.336;-0.846;2023-11-18T00:12:00;7;2;
79117;PMS7003;68523;51.336;-0.846;2023-11-18T00:15:00;7;2;
79117;PMS7003;68523;51.336;-0.846;2023-11-18T00:18:00;3;3;
79117;PMS7003;68523;51.336;-0.846;2023-11-18T00:21:00;3;3;
79117;PMS7003;68523;51.336;-0.846;2023-11-18T00:24:00;2;2;
79117;PMS7003;68523;51.336;-0.846;2023-11-18T00:27:00;7;3;
79117;PMS7003;68523;51.336;-0.846;2023-11-18T00:30:00;7;3;
79117;PMS7003;68523;51.336;-0.846;2023-11-18T00:33:00;2;1;
79117;PMS7003;68523;51.336;-0.846;2023-11-18T00:36:00;2;1;
79117;PMS7003;68523;51.336;-0.846;2023-11-18T00:39:00;9;2;
79117;PMS7003;68523;51.336;-0.846;2023-11-18T00:42:00;9;2;
79117;PMS7003;68523;51.336;-0.846;2023-11-18T00:45:00;3;2;
79117;PMS7003;68523;51.336;-0.846;2023-11-18T00:48:00;9;6;
79117;PMS7003;68523;51.336;-0.846;2023-11-18T00:51:00;9;6;
79117;PMS7003;68523;51.336;-0.846;2023-11-18T00:54:00;4;4;
79117;PMS7003;68523;51.336;-0.846;2023-11-18T00:57:00;4;4;
79117;PMS7003;68523;51.336;-0.846;2023-11-18T01:00:00;8;5;
79117;PMS7003;68523;51.336;-0.846;2023-11-18T01:03:00;4;3;
79117;PMS7003;68523;51.336;-0.846;2023-11-18T01:06:00;4;3;
79117;PMS7003;68523;51.336;-0.846;2023-11-18T01:09:00;8;3;
79117;PMS7003;68523;51.336;-0.846;2023-11-18T01:12:00;8;3;
79117;PMS7003;68523;51.336;-0.846;2023-11-18T01:15:00;7;7;
79117;PMS7003;68523;51.336;-0.846;2023-11-18T01:18:00;4;4;
79117;PMS7003;68523;51.336;-0.846;2023-11-18T01:21:00;4;4;
79117;PMS7003;68523;51.336;-0.846;2023-11-18T01:24:00;4;4;
79117;PMS7003;68523;51.336;-0.846;2023-11-18T01:27:00;4;4;
79117;PMS7003;68523;51.336;-0.846;2023-11-18T01:30:00;5;4;
79117;PMS7003;68523;51.336;-0.846;2023-11-18T01:33:00;6;4;
79117;PMS7003;68523;51.336;-0.846;2023-11-18T01:36:00;6;4;
79117;PMS7003;68523;51.336;-0.846;2023-11-18T01:39:00;7;7;
79117;PMS7003;68523;51.336;-0.846;2023-11-18T01:42:00;7;7;
79117;PMS7003;68523;51.336;-0.846;2023-11-18T01:45:00;8;4;
79117;PMS7003;68523;51.336;-0.846;2023-11-18T01:48:00;6;4;
79117;PMS7003;68523;51.336;-0.846;2023-11-18T01:51:00;6;4;
79117;PMS7003;68523;51.336;-0.846;2023-11-18T01:54:00;5;3;
79117;PMS7003;68523;51.336;-0.846;2023-11-18T01:57:00;5;3;
79117;PMS7003;68523;51.336;-0.846;2023-11-18T02:00:00;4;4;
79117;PMS7003;68523;51.336;-0.846;2023-11-18T02:03:00;3;2;
79117;PMS7003;68523;51.336;-0.846;2023-11-18T02:06:00;3;2;
79117;PMS7003;68523;51.336;-0.846;2023-11-18T02:09:00;4;4;
79117;PMS7003;68523;51.336;-0.846;2023-11-18T02:12:02;4;4;
79117;PMS7003;68523;51.336;-0.846;2023-11-18T02:15:00;5;2;
79117;PMS7003;68523;51.336;-0.846;2023-11-18T02:18:01;4;3;
79117;PMS7003;68523;51.336;-0.846;2023-11-18T02:21:00;4;3;
79117;PMS7003;68523;51.336;-0.846;2023-11-18T02:24:00;5;2;
79117;PMS7003;68523;51.336;-0.846;2023-11-18T02:27:00;5;2;
79117;PMS7003;68523;51.336;-0.846;2023-11-18T02:30:00;3;1;
79117;PMS7003;68523;51.336;-0.846;2023-11-18T02:33:01;2;1;
79117;PMS7003;68523;51.336;-0.846;2023-11-18T02:36:02;2;1;
79117;PMS7003;68523;51.336;-0.846;2023-11-18T02:39:00;2;1;
79117;PMS7003;68523;51.336;-0.846;2023-11-18T02:42:01;2;1;
79117;PMS7003;68523;51.336;-0.846;2023-11-18T02:45:00;2;2;
79117;PMS7003;68523;51.336;-0.846;2023-11-18T02:48:00;1;1;
79117;PMS7003;68523;51.336;-0.846;2023-11-18T02:51:00;1;1;
79117;PMS7003;68523;51.336;-0.846;2023-11-18T02:54:00;2;1;
79117;PMS7003;68523;51.336;-0.846;2023-11-18T02:57:00;2;1;
79117;PMS7003;68523;51.336;-0.846;2023-11-18T03:00:00;1;1;
79117;PMS7003;68523;51.336;-0.846;2023-11-18T03:03:00;1;1;
79117;PMS7003;68523;51.336;-0.846;2023-11-18T03:06:00;1;1;
79117;PMS7003;68523;51.336;-0.846;2023-11-18T03:09:00;1;1;
79117;PMS7003;68523;51.336;-0.846;2023-11-18T03:12:00;1;1;
79117;PMS7003;68523;51.336;-0.846;2023-11-18T03:15:00;1;1;
79117;PMS7003;68523;51.336;-0.846;2023-11-18T03:18:00;1;0;
79117;PMS7003;68523;51.336;-0.846;2023-11-18T03:21:00;1;0;
79117;PMS7003;68523;51.336;-0.846;2023-11-18T03:24:00;0;0;
79117;PMS7003;68523;51.336;-0.846;2023-11-18T03:27:00;0;0;
79117;PMS7003;68523;51.336;-0.846;2023-11-18T03:30:00;2;1;
79117;PMS7003;68523;51.336;-0.846;2023-11-18T03:33:00;1;1;
79117;PMS7003;68523;51.336;-0.846;2023-11-18T03:36:00;1;1;
79117;PMS7003;68523;51.336;-0.846;2023-11-18T03:39:00;0;0;
79117;PMS7003;68523;51.336;-0.846;2023-11-18T03:42:00;0;0;
79117;PMS7003;68523;51.336;-0.846;2023-11-18T03:45:00;1;0;
79117;PMS7003;68523;51.336;-0.846;2023-11-18T03:48:00;2;1;
79117;PMS7003;68523;51.336;-0.846;2023-11-18T03:51:01;2;1;
79117;PMS7003;68523;51.336;-0.846;2023-11-18T03:54:00;1;1;
79117;PMS7003;68523;51.336;-0.846;2023-11-18T03:57:00;1;1;
79117;PMS7003;68523;51.336;-0.846;2023-11-18T04:00:00;2;0;
79117;PMS7003;68523;51.336;-0.846;2023-11-18T04:03:00;0;0;
79117;PMS7003;68523;51.336;-0.846;2023-11-18T04:06:00;0;0;
79117;PMS7003;68523;51.336;-0.846;2023-11-18T04:09:00;0;0;
79117;PMS7003;68523;51.336;-0.846;2023-11-18T04:12:00;0;0;
79117;PMS7003;68523;51.336;-0.846;2023-11-18T04:15:00;1;0;
79117;PMS7003;68523;51.336;-0.846;2023-11-18T04:18:00;0;0;
79117;PMS7003;68523;51.336;-0.846;2023-11-18T04:21:00;0;0;
79117;PMS7003;68523;51.336;-0.846;2023-11-18T04:24:00;0;0;
79117;PMS7003;68523;51.336;-0.846;2023-11-18T04:27:00;0;0;
79117;PMS7003;68523;51.336;-0.846;2023-11-18T04:30:00;0;0;
79117;PMS7003;68523;51.336;-0.846;2023-11-18T04:33:00;0;0;
79117;PMS7003;68523;51.336;-0.846;2023-11-18T04:36:00;0;0;
79117;PMS7003;68523;51.336;-0.846;2023-11-18T04:39:00;1;0;
79117;PMS7003;68523;51.336;-0.846;2023-11-18T04:42:00;1;0;
79117;PMS7003;68523;51.336;-0.846;2023-11-18T04:45:00;0;0;
79117;PMS7003;68523;51.336;-0.846;2023-11-18T04:48:00;0;0;
79117;PMS7003;68523;51.336;-0.846;2023-11-18T04:51:00;0;0;
79117;PMS7003;68523;51.336;-0.846;2023-11-18T04:54:00;0;0;
79117;PMS7003;68523;51.336;-0.846;2023-11-18T04:57:00;0;0;
79117;PMS7003;68523;51.336;-0.846;2023-11-18T05:00:01;0;0;
79117;PMS7003;68523;51.336;-0.846;2023-11-18T05:03:00;0;0;
79117;PMS7003;68523;51.336;-0.846;2023-11-18T05:06:00;0;0;
79117;PMS7003;68523;51.336;-0.846;2023-11-18T05:09:00;0;0;
79117;PMS7003;68523;51.336;-0.846;2023-11-18T05:12:00;0;0;
79117;PMS7003;68523;51.336;-0.846;2023-11-18T05:15:00;0;0;
79117;PMS7003;68523;51.336;-0.846;2023-11-18T05:18:00;1;0;
79117;PMS7003;68523;51.336;-0.846;2023-11-18T05:21:01;1;0;
79117;PMS7003;68523;51.336;-0.846;2023-11-18T05:24:00;0;0;
79117;PMS7003;68523;51.336;-0.846;2023-11-18T05:27:00;0;0;
79117;PMS7003;68523;51.336;-0.846;2023-11-18T05:30:00;0;0;
79117;PMS7003;68523;51.336;-0.846;2023-11-18T05:33:01;0;0;
79117;PMS7003;68523;51.336;-0.846;2023-11-18T05:36:00;0;0;
79117;PMS7003;68523;51.336;-0.846;2023-11-18T05:39:00;0;0;
79117;PMS7003;68523;51.336;-0.846;2023-11-18T05:42:00;0;0;
79117;PMS7003;68523;51.336;-0.846;2023-11-18T05:45:00;0;0;
79117;PMS7003;68523;51.336;-0.846;2023-11-18T05:48:00;0;0;
79117;PMS7003;68523;51.336;-0.846;2023-11-18T05:51:00;0;0;
79117;PMS7003;68523;51.336;-0.846;2023-11-18T05:54:00;0;0;
79117;PMS7003;68523;51.336;-0.846;2023-11-18T05:57:00;0;0;
79117;PMS7003;68523;51.336;-0.846;2023-11-18T06:00:00;0;0;
79117;PMS7003;68523;51.336;-0.846;2023-11-18T06:03:00;1;0;
79117;PMS7003;68523;51.336;-0.846;2023-11-18T06:06:00;1;0;
79117;PMS7003;68523;51.336;-0.846;2023-11-18T06:09:00;0;0;
79117;PMS7003;68523;51.336;-0.846;2023-11-18T06:12:00;0;0;
79117;PMS7003;68523;51.336;-0.846;2023-11-18T06:15:00;0;0;
79117;PMS7003;68523;51.336;-0.846;2023-11-18T06:18:00;0;0;
79117;PMS7003;68523;51.336;-0.846;2023-11-18T06:21:00;0;0;
79117;PMS7003;68523;51.336;-0.846;2023-11-18T06:24:00;1;0;
79117;PMS7003;68523;51.336;-0.846;2023-11-18T06:27:00;1;0;
79117;PMS7003;68523;51.336;-0.846;2023-11-18T06:30:00;0;0;
79117;PMS7003;68523;51.336;-0.846;2023-11-18T06:33:00;0;0;
79117;PMS7003;68523;51.336;-0.846;2023-11-18T06:36:00;0;0;
79117;PMS7003;68523;51.336;-0.846;2023-11-18T06:39:00;0;0;
79117;PMS7003;68523;51.336;-0.846;2023-11-18T06:42:00;0;0;
79117;PMS7003;68523;51.336;-0.846;2023-11-18T06:45:00;1;0;
79117;PMS7003;68523;51.336;-0.846;2023-11-18T06:48:00;0;0;
79117;PMS7003;68523;51.336;-0.846;2023-11-18T06:51:00;0;0;
79117;PMS7003;68523;51.336;-0.846;2023-11-18T06:54:00;0;0;
79117;PMS7003;68523;51.336;-0.846;2023-11-18T06:57:00;0;0;
79117;PMS7003;68523;51.336;-0.846;2023-11-18T07:00:00;0;0;
79117;PMS7003;68523;51.336;-0.846;2023-11-18T07:03:00;0;0;
79117;PMS7003;68523;51.336;-0.846;2023-11-18T07:06:00;0;0;
79117;PMS7003;68523;51.336;-0.846;2023-11-18T07:09:00;0;0;
79117;PMS7003;68523;51.336;-0.846;2023-11-18T07:12:00;0;0;
79117;PMS7003;68523;51.336;-0.846;2023-11-18T07:15:00;2;0;
79117;PMS7003;68523;51.336;-0.846;2023-11-18T07:18:00;6;1;
79117;PMS7003;68523;51.336;-0.846;2023-11-18T07:21:00;6;1;
79117;PMS7003;68523;51.336;-0.846;2023-11-18T07:24:00;0;0;
79117;PMS7003;68523;51.336;-0.846;2023-11-18T07:27:00;0;0;
79117;PMS7003;68523;51.336;-0.846;2023-11-18T07:30:00;0;0;
79117;PMS7003;68523;51.336;-0.846;2023-11-18T07:33:00;1;0;
79117;PMS7003;68523;51.336;-0.846;2023-11-18T07:36:00;1;0;
79117;PMS7003;68523;51.336;-0.846;2023-11-18T07:39:00;0;0;
79117;PMS7003;68523;51.336;-0.846;2023-11-18T07:42:00;0;0;
79117;PMS7003;68523;51.336;-0.846;2023-11-18T07:45:00;0;0;
79117;PMS7003;68523;51.336;-0.846;2023-11-18T07:48:00;0;0;
79117;PMS7003;68523;51.336;-0.846;2023-11-18T07:51:00;0;0;
79117;PMS7003;68523;51.336;-0.846;2023-11-18T07:54:00;1;0;
79117;PMS7003;68523;51.336;-0.846;2023-11-18T07:57:00;1;0;
79117;PMS7003;68523;51.336;-0.846;2023-11-18T08:00:00;0;0;
79117;PMS7003;68523;51.336;-0.846;2023-11-18T08:03:00;0;0;
79117;PMS7003;68523;51.336;-0.846;2023-11-18T08:06:00;0;0;
79117;PMS7003;68523;51.336;-0.846;2023-11-18T08:09:00;0;0;
79117;PMS7003;68523;51.336;-0.846;2023-11-18T08:12:00;0;0;
79117;PMS7003;68523;51.336;-0.846;2023-11-18T08:15:00;0;0;
79117;PMS7003;68523;51.336;-0.846;2023-11-18T08:18:00;0;0;
79117;PMS7003;68523;51.336;-0.846;2023-11-18T08:21:00;0;0;
79117;PMS7003;68523;51.336;-0.846;2023-11-18T08:24:00;0;0;
79117;PMS7003;68523;51.336;-0.846;2023-11-18T08:27:00;0;0;
79117;PMS7003;68523;51.336;-0.846;2023-11-18T08:30:00;0;0;
79117;PMS7003;68523;51.336;-0.846;2023-11-18T08:33:00;0;0;
79117;PMS7003;68523;51.336;-0.846;2023-11-18T08:36:00;2;0;
79117;PMS7003;68523;51.336;-0.846;2023-11-18T08:39:00;0;0;
79117;PMS7003;68523;51.336;-0.846;2023-11-18T08:42:00;0;0;
79117;PMS7003;68523;51.336;-0.846;2023-11-18T08:45:00;0;0;
79117;PMS7003;68523;51.336;-0.846;2023-11-18T08:48:01;0;0;
79117;PMS7003;68523;51.336;-0.846;2023-11-18T08:51:00;1;1;
79117;PMS7003;68523;51.336;-0.846;2023-11-18T08:54:00;0;0;
79117;PMS7003;68523;51.336;-0.846;2023-11-18T08:57:00;0;0;
79117;PMS7003;68523;51.336;-0.846;2023-11-18T09:00:00;1;1;
79117;PMS7003;68523;51.336;-0.846;2023-11-18T09:03:00;1;1;
79117;PMS7003;68523;51.336;-0.846;2023-11-18T09:06:01;2;2;
79117;PMS7003;68523;51.336;-0.846;2023-11-18T09:09:00;1;1;
79117;PMS7003;68523;51.336;-0.846;2023-11-18T09:12:00;1;1;
79117;PMS7003;68523;51.336;-0.846;2023-11-18T09:15:00;1;1;
79117;PMS7003;68523;51.336;-0.846;2023-11-18T09:18:00;1;1;
79117;PMS7003;68523;51.336;-0.846;2023-11-18T09:21:00;1;0;
79117;PMS7003;68523;51.336;-0.846;2023-11-18T09:24:00;0;0;
79117;PMS7003;68523;51.336;-0.846;2023-11-18T09:27:00;0;0;
79117;PMS7003;68523;51.336;-0.846;2023-11-18T09:30:00;0;0;
79117;PMS7003;68523;51.336;-0.846;2023-11-18T09:33:00;0;0;
79117;PMS7003;68523;51.336;-0.846;2023-11-18T09:36:00;0;0;
79117;PMS7003;68523;51.336;-0.846;2023-11-18T09:39:00;2;1;
79117;PMS7003;68523;51.336;-0.846;2023-11-18T09:42:00;2;1;
79117;PMS7003;68523;51.336;-0.846;2023-11-18T09:45:00;1;0;
79117;PMS7003;68523;51.336;-0.846;2023-11-18T09:48:00;1;0;
79117;PMS7003;68523;51.336;-0.846;2023-11-18T09:51:00;0;0;
79117;PMS7003;68523;51.336;-0.846;2023-11-18T09:54:01;0;0;
79117;PMS7003;68523;51.336;-0.846;2023-11-18T09:57:02;0;0;
79117;PMS7003;68523;51.336;-0.846;2023-11-18T10:00:01;0;0;
79117;PMS7003;68523;51.336;-0.846;2023-11-18T10:03:00;0;0;
79117;PMS7003;68523;51.336;-0.846;2023-11-18T10:06:00;1;0;
79117;PMS7003;68523;51.336;-0.846;2023-11-18T10:09:00;0;0;
79117;PMS7003;68523;51.336;-0.846;2023-11-18T10:12:00;0;0;
79117;PMS7003;68523;51.336;-0.846;2023-11-18T10:15:00;0;0;
79117;PMS7003;68523;51.336;-0.846;2023-11-18T10:18:00;0;0;
79117;PMS7003;68523;51.336;-0.846;2023-11-18T10:21:00;1;0;
79117;PMS7003;68523;51.336;-0.846;2023-11-18T10:24:00;0;0;
79117;PMS7003;68523;51.336;-0.846;2023-11-18T10:27:00;0;0;
79117;PMS7003;68523;51.336;-0.846;2023-11-18T10:30:01;1;0;
79117;PMS7003;68523;51.336;-0.846;2023-11-18T10:33:00;1;0;
79117;PMS7003;68523;51.336;-0.846;2023-11-18T10:36:00;2;0;
79117;PMS7003;68523;51.336;-0.846;2023-11-18T10:39:00;0;0;
79117;PMS7003;68523;51.336;-0.846;2023-11-18T10:42:00;0;0;
79117;PMS7003;68523;51.336;-0.846;2023-11-18T10:45:00;0;0;
79117;PMS7003;68523;51.336;-0.846;2023-11-18T10:48:00;0;0;
79117;PMS7003;68523;51.336;-0.846;2023-11-18T10:51:00;1;0;
79117;PMS7003;68523;51.336;-0.846;2023-11-18T10:54:00;0;0;
79117;PMS7003;68523;51.336;-0.846;2023-11-18T10:57:00;0;0;
79117;PMS7003;68523;51.336;-0.846;2023-11-18T11:00:00;0;0;
79117;PMS7003;68523;51.336;-0.846;2023-11-18T11:03:00;0;0;
79117;PMS7003;68523;51.336;-0.846;2023-11-18T11:06:00;0;0;
79117;PMS7003;68523;51.336;-0.846;2023-11-18T11:09:00;0;0;
79117;PMS7003;68523;51.336;-0.846;2023-11-18T11:12:00;0;0;
79117;PMS7003;68523;51.336;-0.846;2023-11-18T11:15:03;0;0;
79117;PMS7003;68523;51.336;-0.846;2023-11-18T11:18:02;0;0;
79117;PMS7003;68523;51.336;-0.846;2023-11-18T11:21:02;0;0;
79117;PMS7003;68523;51.336;-0.846;2023-11-18T11:24:01;0;0;
79117;PMS7003;68523;51.336;-0.846;2023-11-18T11:27:03;0;0;
79117;PMS7003;68523;51.336;-0.846;2023-11-18T11:30:01;0;0;
79117;PMS7003;68523;51.336;-0.846;2023-11-18T11:33:01;0;0;
79117;PMS7003;68523;51.336;-0.846;2023-11-18T11:36:00;1;1;
79117;PMS7003;68523;51.336;-0.846;2023-11-18T11:39:00;0;0;
79117;PMS7003;68523;51.336;-0.846;2023-11-18T11:42:00;0;0;
79117;PMS7003;68523;51.336;-0.846;2023-11-18T11:45:00;1;1;
79117;PMS7003;68523;51.336;-0.846;2023-11-18T11:48:00;1;1;
79117;PMS7003;68523;51.336;-0.846;2023-11-18T11:51:02;1;0;
79117;PMS7003;68523;51.336;-0.846;2023-11-18T11:54:01;0;0;
79117;PMS7003;68523;51.336;-0.846;2023-11-18T11:57:00;0;0;
79117;PMS7003;68523;51.336;-0.846;2023-11-18T12:00:02;0;0;
79117;PMS7003;68523;51.336;-0.846;2023-11-18T12:03:01;0;0;
79117;PMS7003;68523;51.336;-0.846;2023-11-18T12:06:00;0;0;
79117;PMS7003;68523;51.336;-0.846;2023-11-18T12:09:00;1;0;
79117;PMS7003;68523;51.336;-0.846;2023-11-18T12:12:00;1;0;
79117;PMS7003;68523;51.336;-0.846;2023-11-18T12:15:00;0;0;
79117;PMS7003;68523;51.336;-0.846;2023-11-18T12:21:00;0;0;
79117;PMS7003;68523;51.336;-0.846;2023-11-18T12:27:00;1;0;
79117;PMS7003;68523;51.336;-0.846;2023-11-18T12:30:00;0;0;
79117;PMS7003;68523;51.336;-0.846;2023-11-18T12:33:00;0;0;
79117;PMS7003;68523;51.336;-0.846;2023-11-18T12:54:00;1;0;
79117;PMS7003;68523;51.336;-0.846;2023-11-18T12:57:00;1;0;
79117;PMS7003;68523;51.336;-0.846;2023-11-18T13:00:00;2;1;
79117;PMS7003;68523;51.336;-0.846;2023-11-18T13:03:00;2;1;
79117;PMS7003;68523;51.336;-0.846;2023-11-18T13:06:00;2;0;
79117;PMS7003;68523;51.336;-0.846;2023-11-18T13:09:00;1;0;
79117;PMS7003;68523;51.336;-0.846;2023-11-18T13:12:00;1;0;
79117;PMS7003;68523;51.336;-0.846;2023-11-18T13:15:00;0;0;
79117;PMS7003;68523;51.336;-0.846;2023-11-18T13:18:00;0;0;
79117;PMS7003;68523;51.336;-0.846;2023-11-18T13:21:00;0;0;
79117;PMS7003;68523;51.336;-0.846;2023-11-18T13:24:00;1;1;
79117;PMS7003;68523;51.336;-0.846;2023-11-18T13:27:00;1;1;
79117;PMS7003;68523;51.336;-0.846;2023-11-18T13:30:00;0;0;
79117;PMS7003;68523;51.336;-0.846;2023-11-18T13:33:00;0;0;
79117;PMS7003;68523;51.336;-0.846;2023-11-18T13:36:00;2;1;
79117;PMS7003;68523;51.336;-0.846;2023-11-18T13:39:00;1;1;
79117;PMS7003;68523;51.336;-0.846;2023-11-18T13:45:03;unavailable;unavailable;
79117;PMS7003;68523;51.336;-0.846;2023-11-18T13:48:00;unavailable;unavailable;
79117;PMS7003;68523;51.336;-0.846;2023-11-18T13:51:00;unavailable;unavailable;
79117;PMS7003;68523;51.336;-0.846;2023-11-18T13:54:00;unavailable;unavailable;
79117;PMS7003;68523;51.336;-0.846;2023-11-18T13:57:00;unknown;unknown;
79117;PMS7003;68523;51.336;-0.846;2023-11-18T14:00:00;unknown;unknown;
79117;PMS7003;68523;51.336;-0.846;2023-11-18T14:03:00;2;2;
79117;PMS7003;68523;51.336;-0.846;2023-11-18T14:06:00;3;1;
79117;PMS7003;68523;51.336;-0.846;2023-11-18T14:09:00;3;1;
79117;PMS7003;68523;51.336;-0.846;2023-11-18T14:12:00;3;1;
79117;PMS7003;68523;51.336;-0.846;2023-11-18T14:15:00;3;1;
79117;PMS7003;68523;51.336;-0.846;2023-11-18T14:18:00;4;1;
79117;PMS7003;68523;51.336;-0.846;2023-11-18T14:21:00;3;3;
79117;PMS7003;68523;51.336;-0.846;2023-11-18T14:24:00;3;3;
79117;PMS7003;68523;51.336;-0.846;2023-11-18T14:27:00;2;2;
79117;PMS7003;68523;51.336;-0.846;2023-11-18T14:30:00;2;2;
79117;PMS7003;68523;51.336;-0.846;2023-11-18T14:33:00;6;2;
79117;PMS7003;68523;51.336;-0.846;2023-11-18T14:36:00;5;4;
79117;PMS7003;68523;51.336;-0.846;2023-11-18T14:39:00;5;4;
79117;PMS7003;68523;51.336;-0.846;2023-11-18T14:42:00;3;2;
79117;PMS7003;68523;51.336;-0.846;2023-11-18T14:45:00;3;2;
79117;PMS7003;68523;51.336;-0.846;2023-11-18T14:48:00;3;2;
79117;PMS7003;68523;51.336;-0.846;2023-11-18T14:51:00;4;3;
79117;PMS7003;68523;51.336;-0.846;2023-11-18T14:54:00;4;3;
79117;PMS7003;68523;51.336;-0.846;2023-11-18T14:57:00;4;4;
79117;PMS7003;68523;51.336;-0.846;2023-11-18T15:00:00;4;4;
79117;PMS7003;68523;51.336;-0.846;2023-11-18T15:03:00;5;2;
79117;PMS7003;68523;51.336;-0.846;2023-11-18T15:06:00;3;2;
79117;PMS7003;68523;51.336;-0.846;2023-11-18T15:09:00;3;2;
79117;PMS7003;68523;51.336;-0.846;2023-11-18T15:12:00;5;4;
79117;PMS7003;68523;51.336;-0.846;2023-11-18T15:15:00;5;4;
79117;PMS7003;68523;51.336;-0.846;2023-11-18T15:18:00;6;4;
79117;PMS7003;68523;51.336;-0.846;2023-11-18T15:21:00;5;4;
79117;PMS7003;68523;51.336;-0.846;2023-11-18T15:24:00;5;4;
79117;PMS7003;68523;51.336;-0.846;2023-11-18T15:27:00;7;5;
79117;PMS7003;68523;51.336;-0.846;2023-11-18T15:30:00;7;5;
79117;PMS7003;68523;51.336;-0.846;2023-11-18T15:33:00;7;6;
79117;PMS7003;68523;51.336;-0.846;2023-11-18T15:36:00;4;3;
79117;PMS7003;68523;51.336;-0.846;2023-11-18T15:39:00;4;3;
79117;PMS7003;68523;51.336;-0.846;2023-11-18T15:42:00;6;4;
79117;PMS7003;68523;51.336;-0.846;2023-11-18T15:45:00;6;4;
79117;PMS7003;68523;51.336;-0.846;2023-11-18T15:48:00;9;5;
79117;PMS7003;68523;51.336;-0.846;2023-11-18T15:51:00;6;4;
79117;PMS7003;68523;51.336;-0.846;2023-11-18T15:54:00;6;4;
79117;PMS7003;68523;51.336;-0.846;2023-11-18T15:57:00;7;4;
79117;PMS7003;68523;51.336;-0.846;2023-11-18T16:00:00;7;4;
79117;PMS7003;68523;51.336;-0.846;2023-11-18T16:03:00;5;5;
79117;PMS7003;68523;51.336;-0.846;2023-11-18T16:06:00;7;4;
79117;PMS7003;68523;51.336;-0.846;2023-11-18T16:09:00;7;4;
79117;PMS7003;68523;51.336;-0.846;2023-11-18T16:12:00;6;4;
79117;PMS7003;68523;51.336;-0.846;2023-11-18T16:15:00;6;4;
79117;PMS7003;68523;51.336;-0.846;2023-11-18T16:18:00;6;6;
79117;PMS7003;68523;51.336;-0.846;2023-11-18T16:21:00;15;8;
79117;PMS7003;68523;51.336;-0.846;2023-11-18T16:24:00;15;8;
79117;PMS7003;68523;51.336;-0.846;2023-11-18T16:27:00;7;5;
79117;PMS7003;68523;51.336;-0.846;2023-11-18T16:30:00;7;5;
79117;PMS7003;68523;51.336;-0.846;2023-11-18T16:33:00;10;5;
79117;PMS7003;68523;51.336;-0.846;2023-11-18T16:36:00;13;6;
79117;PMS7003;68523;51.336;-0.846;2023-11-18T16:39:00;13;6;
79117;PMS7003;68523;51.336;-0.846;2023-11-18T16:42:00;10;5;
79117;PMS7003;68523;51.336;-0.846;2023-11-18T16:45:00;10;5;
79117;PMS7003;68523;51.336;-0.846;2023-11-18T16:48:00;3;3;
79117;PMS7003;68523;51.336;-0.846;2023-11-18T16:51:00;13;7;
79117;PMS7003;68523;51.336;-0.846;2023-11-18T16:54:00;13;7;
79117;PMS7003;68523;51.336;-0.846;2023-11-18T16:57:00;8;5;
79117;PMS7003;68523;51.336;-0.846;2023-11-18T17:00:00;8;5;
79117;PMS7003;68523;51.336;-0.846;2023-11-18T17:03:00;8;5;
79117;PMS7003;68523;51.336;-0.846;2023-11-18T17:06:00;8;6;
79117;PMS7003;68523;51.336;-0.846;2023-11-18T17:09:00;8;6;
79117;PMS7003;68523;51.336;-0.846;2023-11-18T17:12:00;11;6;
79117;PMS7003;68523;51.336;-0.846;2023-11-18T17:15:00;11;6;
79117;PMS7003;68523;51.336;-0.846;2023-11-18T17:18:00;5;4;
79117;PMS7003;68523;51.336;-0.846;2023-11-18T17:21:00;13;9;
79117;PMS7003;68523;51.336;-0.846;2023-11-18T17:24:00;13;9;
79117;PMS7003;68523;51.336;-0.846;2023-11-18T17:27:00;14;12;
79117;PMS7003;68523;51.336;-0.846;2023-11-18T17:30:00;14;12;
79117;PMS7003;68523;51.336;-0.846;2023-11-18T17:33:00;7;4;
79117;PMS7003;68523;51.336;-0.846;2023-11-18T17:36:00;16;9;
79117;PMS7003;68523;51.336;-0.846;2023-11-18T17:39:00;16;9;
79117;PMS7003;68523;51.336;-0.846;2023-11-18T17:42:00;15;7;
79117;PMS7003;68523;51.336;-0.846;2023-11-18T17:45:00;15;7;
79117;PMS7003;68523;51.336;-0.846;2023-11-18T17:48:00;9;7;
79117;PMS7003;68523;51.336;-0.846;2023-11-18T17:51:00;11;7;
79117;PMS7003;68523;51.336;-0.846;2023-11-18T17:54:00;11;7;
79117;PMS7003;68523;51.336;-0.846;2023-11-18T17:57:00;13;7;
79117;PMS7003;68523;51.336;-0.846;2023-11-18T18:00:00;13;7;
79117;PMS7003;68523;51.336;-0.846;2023-11-18T18:03:00;10;6;
79117;PMS7003;68523;51.336;-0.846;2023-11-18T18:06:00;13;8;
79117;PMS7003;68523;51.336;-0.846;2023-11-18T18:09:00;13;8;
79117;PMS7003;68523;51.336;-0.846;2023-11-18T18:12:00;15;9;
79117;PMS7003;68523;51.336;-0.846;2023-11-18T18:15:00;15;9;
79117;PMS7003;68523;51.336;-0.846;2023-11-18T18:18:00;11;8;
79117;PMS7003;68523;51.336;-0.846;2023-11-18T18:21:00;11;9;
79117;PMS7003;68523;51.336;-0.846;2023-11-18T18:24:00;11;9;
79117;PMS7003;68523;51.336;-0.846;2023-11-18T18:27:00;13;8;
79117;PMS7003;68523;51.336;-0.846;2023-11-18T18:30:00;13;8;
79117;PMS7003;68523;51.336;-0.846;2023-11-18T18:33:00;15;12;
79117;PMS7003;68523;51.336;-0.846;2023-11-18T18:36:00;15;10;
79117;PMS7003;68523;51.336;-0.846;2023-11-18T18:39:00;15;10;
79117;PMS7003;68523;51.336;-0.846;2023-11-18T18:42:00;14;7;
79117;PMS7003;68523;51.336;-0.846;2023-11-18T18:45:00;14;7;
79117;PMS7003;68523;51.336;-0.846;2023-11-18T18:48:00;14;5;
79117;PMS7003;68523;51.336;-0.846;2023-11-18T18:51:00;13;8;
79117;PMS7003;68523;51.336;-0.846;2023-11-18T18:54:00;13;8;
79117;PMS7003;68523;51.336;-0.846;2023-11-18T18:57:00;15;7;
79117;PMS7003;68523;51.336;-0.846;2023-11-18T19:00:00;15;7;
79117;PMS7003;68523;51.336;-0.846;2023-11-18T19:03:00;15;10;
79117;PMS7003;68523;51.336;-0.846;2023-11-18T19:06:00;21;10;
79117;PMS7003;68523;51.336;-0.846;2023-11-18T19:09:00;21;10;
79117;PMS7003;68523;51.336;-0.846;2023-11-18T19:12:00;11;7;
79117;PMS7003;68523;51.336;-0.846;2023-11-18T19:15:02;11;7;
79117;PMS7003;68523;51.336;-0.846;2023-11-18T19:18:00;20;13;
79117;PMS7003;68523;51.336;-0.846;2023-11-18T19:21:00;17;10;
79117;PMS7003;68523;51.336;-0.846;2023-11-18T19:24:00;17;10;
79117;PMS7003;68523;51.336;-0.846;2023-11-18T19:27:00;10;7;
79117;PMS7003;68523;51.336;-0.846;2023-11-18T19:30:00;10;7;
79117;PMS7003;68523;51.336;-0.846;2023-11-18T19:33:00;13;8;
79117;PMS7003;68523;51.336;-0.846;2023-11-18T19:36:00;14;9;
79117;PMS7003;68523;51.336;-0.846;2023-11-18T19:39:00;14;9;
79117;PMS7003;68523;51.336;-0.846;2023-11-18T19:42:00;16;10;
79117;PMS7003;68523;51.336;-0.846;2023-11-18T19:45:00;16;10;
79117;PMS7003;68523;51.336;-0.846;2023-11-18T19:48:00;13;7;
79117;PMS7003;68523;51.336;-0.846;2023-11-18T19:51:00;9;7;
79117;PMS7003;68523;51.336;-0.846;2023-11-18T19:54:00;9;7;
79117;PMS7003;68523;51.336;-0.846;2023-11-18T19:57:00;15;11;
79117;PMS7003;68523;51.336;-0.846;2023-11-18T20:00:00;15;11;
79117;PMS7003;68523;51.336;-0.846;2023-11-18T20:03:00;20;10;
79117;PMS7003;68523;51.336;-0.846;2023-11-18T20:06:00;18;10;
79117;PMS7003;68523;51.336;-0.846;2023-11-18T20:09:00;18;10;
79117;PMS7003;68523;51.336;-0.846;2023-11-18T20:12:00;18;10;
79117;PMS7003;68523;51.336;-0.846;2023-11-18T20:15:00;18;10;
79117;PMS7003;68523;51.336;-0.846;2023-11-18T20:18:00;13;10;
79117;PMS7003;68523;51.336;-0.846;2023-11-18T20:21:00;14;9;
79117;PMS7003;68523;51.336;-0.846;2023-11-18T20:24:00;14;9;
79117;PMS7003;68523;51.336;-0.846;2023-11-18T20:27:00;19;15;
79117;PMS7003;68523;51.336;-0.846;2023-11-18T20:30:00;19;15;